This is the latest recevied weather packets stored in our database for station/object M0XDC. If no packets are shown the sender has not sent any weather packets the latest 10 day(s).
| Time | Temp. | Humidity | Pressure | Rain* | Wind** | Luminosity | Snow |
|---|---|---|---|---|---|---|---|
| 1777448838 | 12.78° C | 55% | 1022.2 hPa | 0 mm | - | - | - |
| 1777445103 | 11.11° C | 64% | 1022.2 hPa | 0 mm | - | - | - |
| 1777444203 | 10.56° C | 66% | 1022.2 hPa | 0 mm | - | - | - |
| 1777442857 | 10° C | 68% | 1021.9 hPa | 0 mm | - | - | - |
| 1777441057 | 8.89° C | 71% | 1021.7 hPa | 0 mm | - | - | - |
| 1777438805 | 8.33° C | 75% | 1021.6 hPa | 0 mm | - | - | - |
| 1777437905 | 8.33° C | 75% | 1021.3 hPa | 0 mm | - | - | - |
| 1777436105 | 7.78° C | 76% | 1021.3 hPa | 0 mm | - | - | - |
| 1777435203 | 7.78° C | 77% | 1021.4 hPa | 0 mm | - | - | - |
| 1777433403 | 7.78° C | 80% | 1021.5 hPa | 0 mm | - | - | - |
| 1777425440 | 6.67° C | 83% | 1022.3 hPa | 0 mm | - | - | - |
| 1777423503 | 6.11° C | 82% | 1022.3 hPa | 0 mm | - | - | - |
| 1777421705 | 6.11° C | 80% | 1022.4 hPa | 0 mm | - | - | - |
| 1777419903 | 6.67° C | 78% | 1022.3 hPa | 0 mm | - | - | - |
| 1777417205 | 6.67° C | 75% | 1022.4 hPa | 0 mm | - | - | - |
| 1777412838 | 7.22° C | 72% | 1022.7 hPa | 0 mm | - | - | - |
| 1777410003 | 7.78° C | 69% | 1022.9 hPa | 0 mm | - | - | - |
| 1777408205 | 8.33° C | 66% | 1022.5 hPa | 0 mm | - | - | - |
| 1777406403 | 8.89° C | 62% | 1022.4 hPa | 0 mm | - | - | - |
| 1777402806 | 11.11° C | 50% | 1022 hPa | 0 mm | - | - | - |
| 1777400105 | 12.22° C | 44% | 1021.8 hPa | 0 mm | - | - | - |
| 1777397403 | 13.33° C | 44% | 1021.5 hPa | 0 mm | - | - | - |
| 1777396503 | 13.89° C | 45% | 1021.5 hPa | 0 mm | - | - | - |
| 1777392903 | 15° C | 43% | 1021.3 hPa | 0 mm | - | - | - |
| 1777390205 | 15.56° C | 43% | 1021.3 hPa | 0 mm | - | - | - |
* Rain latest hour (hover to see other rain measurements)
** Current wind speed in m/s (hover to see current wind gust speed)